sensor_id;sensor_type;location;lat;lon;timestamp;P1;durP1;ratioP1;P2;durP2;ratioP2
3131;SDS011;62090;52.330;9.104;2023-09-30T00:00:49;19.80;;;5.47;;
3131;SDS011;62090;52.330;9.104;2023-09-30T00:03:19;26.63;;;5.27;;
3131;SDS011;62090;52.330;9.104;2023-09-30T00:05:49;18.50;;;5.23;;
3131;SDS011;62090;52.330;9.104;2023-09-30T00:08:22;17.67;;;5.10;;
3131;SDS011;62090;52.330;9.104;2023-09-30T00:10:52;21.80;;;5.90;;
3131;SDS011;62090;52.330;9.104;2023-09-30T00:13:22;36.33;;;7.17;;
3131;SDS011;62090;52.330;9.104;2023-09-30T00:15:52;24.30;;;6.00;;
3131;SDS011;62090;52.330;9.104;2023-09-30T00:18:22;24.40;;;6.33;;
3131;SDS011;62090;52.330;9.104;2023-09-30T00:20:52;22.33;;;6.07;;
3131;SDS011;62090;52.330;9.104;2023-09-30T00:23:24;19.57;;;5.93;;
3131;SDS011;62090;52.330;9.104;2023-09-30T00:25:54;24.80;;;5.30;;
3131;SDS011;62090;52.330;9.104;2023-09-30T00:28:24;20.10;;;5.50;;
3131;SDS011;62090;52.330;9.104;2023-09-30T00:30:56;18.60;;;6.13;;
3131;SDS011;62090;52.330;9.104;2023-09-30T00:33:25;21.87;;;6.33;;
3131;SDS011;62090;52.330;9.104;2023-09-30T00:35:56;18.80;;;5.57;;
3131;SDS011;62090;52.330;9.104;2023-09-30T00:38:28;21.10;;;4.93;;
3131;SDS011;62090;52.330;9.104;2023-09-30T00:40:58;19.17;;;4.80;;
3131;SDS011;62090;52.330;9.104;2023-09-30T00:43:28;16.63;;;5.50;;
3131;SDS011;62090;52.330;9.104;2023-09-30T00:46:01;15.57;;;5.47;;
3131;SDS011;62090;52.330;9.104;2023-09-30T00:48:34;19.80;;;4.90;;
3131;SDS011;62090;52.330;9.104;2023-09-30T00:51:04;17.80;;;5.00;;
3131;SDS011;62090;52.330;9.104;2023-09-30T00:53:37;20.57;;;4.73;;
3131;SDS011;62090;52.330;9.104;2023-09-30T00:56:08;22.10;;;5.20;;
3131;SDS011;62090;52.330;9.104;2023-09-30T00:58:39;19.90;;;4.87;;
3131;SDS011;62090;52.330;9.104;2023-09-30T01:01:09;18.87;;;5.80;;
3131;SDS011;62090;52.330;9.104;2023-09-30T01:03:39;14.27;;;5.20;;
3131;SDS011;62090;52.330;9.104;2023-09-30T01:06:10;20.30;;;5.43;;
3131;SDS011;62090;52.330;9.104;2023-09-30T01:08:43;17.63;;;4.53;;
3131;SDS011;62090;52.330;9.104;2023-09-30T01:11:13;18.87;;;4.70;;
3131;SDS011;62090;52.330;9.104;2023-09-30T01:13:44;17.47;;;4.90;;
3131;SDS011;62090;52.330;9.104;2023-09-30T01:16:14;13.90;;;4.57;;
3131;SDS011;62090;52.330;9.104;2023-09-30T01:18:44;23.90;;;5.40;;
3131;SDS011;62090;52.330;9.104;2023-09-30T01:21:15;23.37;;;4.93;;
3131;SDS011;62090;52.330;9.104;2023-09-30T01:23:49;19.43;;;5.00;;
3131;SDS011;62090;52.330;9.104;2023-09-30T01:26:19;17.83;;;4.67;;
3131;SDS011;62090;52.330;9.104;2023-09-30T01:28:49;16.77;;;4.40;;
3131;SDS011;62090;52.330;9.104;2023-09-30T01:31:19;20.37;;;4.90;;
3131;SDS011;62090;52.330;9.104;2023-09-30T01:33:49;17.80;;;4.70;;
3131;SDS011;62090;52.330;9.104;2023-09-30T01:36:21;22.27;;;5.00;;
3131;SDS011;62090;52.330;9.104;2023-09-30T01:38:54;27.20;;;6.40;;
3131;SDS011;62090;52.330;9.104;2023-09-30T01:41:24;29.93;;;6.50;;
3131;SDS011;62090;52.330;9.104;2023-09-30T01:43:54;23.33;;;5.67;;
3131;SDS011;62090;52.330;9.104;2023-09-30T01:46:25;15.77;;;4.70;;
3131;SDS011;62090;52.330;9.104;2023-09-30T01:48:55;19.53;;;5.40;;
3131;SDS011;62090;52.330;9.104;2023-09-30T01:51:25;33.77;;;6.80;;
3131;SDS011;62090;52.330;9.104;2023-09-30T01:54:00;20.33;;;4.97;;
3131;SDS011;62090;52.330;9.104;2023-09-30T01:56:30;14.60;;;5.07;;
3131;SDS011;62090;52.330;9.104;2023-09-30T01:59:00;20.73;;;5.33;;
3131;SDS011;62090;52.330;9.104;2023-09-30T02:01:30;23.20;;;5.27;;
3131;SDS011;62090;52.330;9.104;2023-09-30T02:04:00;17.73;;;4.27;;
3131;SDS011;62090;52.330;9.104;2023-09-30T02:06:32;17.73;;;5.30;;
3131;SDS011;62090;52.330;9.104;2023-09-30T02:09:05;22.50;;;5.10;;
3131;SDS011;62090;52.330;9.104;2023-09-30T02:11:36;22.87;;;5.53;;
3131;SDS011;62090;52.330;9.104;2023-09-30T02:14:09;17.73;;;5.33;;
3131;SDS011;62090;52.330;9.104;2023-09-30T02:16:40;18.73;;;4.87;;
3131;SDS011;62090;52.330;9.104;2023-09-30T02:19:10;16.43;;;4.73;;
3131;SDS011;62090;52.330;9.104;2023-09-30T02:21:40;21.60;;;5.47;;
3131;SDS011;62090;52.330;9.104;2023-09-30T02:24:14;27.27;;;6.53;;
3131;SDS011;62090;52.330;9.104;2023-09-30T02:26:44;15.87;;;5.70;;
3131;SDS011;62090;52.330;9.104;2023-09-30T02:29:14;23.53;;;6.10;;
3131;SDS011;62090;52.330;9.104;2023-09-30T02:31:44;21.40;;;5.10;;
3131;SDS011;62090;52.330;9.104;2023-09-30T02:34:14;18.83;;;4.80;;
3131;SDS011;62090;52.330;9.104;2023-09-30T02:36:44;18.23;;;5.50;;
3131;SDS011;62090;52.330;9.104;2023-09-30T02:39:17;12.83;;;4.70;;
3131;SDS011;62090;52.330;9.104;2023-09-30T02:41:47;35.70;;;6.20;;
3131;SDS011;62090;52.330;9.104;2023-09-30T02:44:19;20.40;;;5.20;;
3131;SDS011;62090;52.330;9.104;2023-09-30T02:46:49;31.90;;;6.10;;
3131;SDS011;62090;52.330;9.104;2023-09-30T02:49:20;20.90;;;5.07;;
3131;SDS011;62090;52.330;9.104;2023-09-30T02:51:50;28.83;;;5.70;;
3131;SDS011;62090;52.330;9.104;2023-09-30T02:54:23;21.40;;;5.33;;
3131;SDS011;62090;52.330;9.104;2023-09-30T02:56:53;16.57;;;4.87;;
3131;SDS011;62090;52.330;9.104;2023-09-30T02:59:23;17.97;;;5.30;;
3131;SDS011;62090;52.330;9.104;2023-09-30T03:01:54;24.87;;;5.60;;
3131;SDS011;62090;52.330;9.104;2023-09-30T03:04:24;17.00;;;5.93;;
3131;SDS011;62090;52.330;9.104;2023-09-30T03:06:55;21.90;;;5.23;;
3131;SDS011;62090;52.330;9.104;2023-09-30T03:09:28;22.07;;;5.33;;
3131;SDS011;62090;52.330;9.104;2023-09-30T03:11:58;30.40;;;5.97;;
3131;SDS011;62090;52.330;9.104;2023-09-30T03:14:29;27.00;;;5.70;;
3131;SDS011;62090;52.330;9.104;2023-09-30T03:16:59;18.53;;;5.07;;
3131;SDS011;62090;52.330;9.104;2023-09-30T03:19:30;16.47;;;5.27;;
3131;SDS011;62090;52.330;9.104;2023-09-30T03:22:00;29.87;;;4.80;;
3131;SDS011;62090;52.330;9.104;2023-09-30T03:24:34;24.80;;;6.17;;
3131;SDS011;62090;52.330;9.104;2023-09-30T03:27:04;23.43;;;4.90;;
3131;SDS011;62090;52.330;9.104;2023-09-30T03:29:35;20.27;;;4.97;;
3131;SDS011;62090;52.330;9.104;2023-09-30T03:32:03;24.90;;;5.10;;
3131;SDS011;62090;52.330;9.104;2023-09-30T03:34:33;22.80;;;5.77;;
3131;SDS011;62090;52.330;9.104;2023-09-30T03:37:04;21.73;;;5.90;;
3131;SDS011;62090;52.330;9.104;2023-09-30T03:39:37;23.57;;;5.90;;
3131;SDS011;62090;52.330;9.104;2023-09-30T03:42:07;31.67;;;5.50;;
3131;SDS011;62090;52.330;9.104;2023-09-30T03:44:39;17.40;;;4.63;;
3131;SDS011;62090;52.330;9.104;2023-09-30T03:47:09;21.33;;;6.03;;
3131;SDS011;62090;52.330;9.104;2023-09-30T03:49:39;27.90;;;5.80;;
3131;SDS011;62090;52.330;9.104;2023-09-30T03:52:09;15.70;;;5.73;;
3131;SDS011;62090;52.330;9.104;2023-09-30T03:54:44;23.73;;;5.03;;
3131;SDS011;62090;52.330;9.104;2023-09-30T03:57:15;19.50;;;5.03;;
3131;SDS011;62090;52.330;9.104;2023-09-30T03:59:45;24.47;;;5.17;;
3131;SDS011;62090;52.330;9.104;2023-09-30T04:02:15;20.03;;;6.10;;
3131;SDS011;62090;52.330;9.104;2023-09-30T04:04:45;19.90;;;5.33;;
3131;SDS011;62090;52.330;9.104;2023-09-30T04:07:18;21.77;;;4.90;;
3131;SDS011;62090;52.330;9.104;2023-09-30T04:09:50;24.07;;;4.90;;
3131;SDS011;62090;52.330;9.104;2023-09-30T04:12:20;19.43;;;5.57;;
3131;SDS011;62090;52.330;9.104;2023-09-30T04:14:50;27.87;;;5.43;;
3131;SDS011;62090;52.330;9.104;2023-09-30T04:17:20;27.27;;;5.60;;
3131;SDS011;62090;52.330;9.104;2023-09-30T04:19:51;19.43;;;4.83;;
3131;SDS011;62090;52.330;9.104;2023-09-30T04:22:21;17.50;;;5.17;;
3131;SDS011;62090;52.330;9.104;2023-09-30T04:24:54;19.23;;;5.00;;
3131;SDS011;62090;52.330;9.104;2023-09-30T04:27:25;14.80;;;4.40;;
3131;SDS011;62090;52.330;9.104;2023-09-30T04:29:55;20.20;;;5.40;;
3131;SDS011;62090;52.330;9.104;2023-09-30T04:32:25;29.33;;;6.10;;
3131;SDS011;62090;52.330;9.104;2023-09-30T04:34:55;20.83;;;5.00;;
3131;SDS011;62090;52.330;9.104;2023-09-30T04:37:26;16.47;;;4.10;;
3131;SDS011;62090;52.330;9.104;2023-09-30T04:39:59;20.73;;;5.07;;
3131;SDS011;62090;52.330;9.104;2023-09-30T04:42:34;22.77;;;5.70;;
3131;SDS011;62090;52.330;9.104;2023-09-30T04:45:05;26.93;;;6.20;;
3131;SDS011;62090;52.330;9.104;2023-09-30T04:47:37;18.60;;;5.07;;
3131;SDS011;62090;52.330;9.104;2023-09-30T04:50:07;23.17;;;4.70;;
3131;SDS011;62090;52.330;9.104;2023-09-30T04:52:38;24.60;;;5.17;;
3131;SDS011;62090;52.330;9.104;2023-09-30T04:55:11;20.30;;;5.53;;
3131;SDS011;62090;52.330;9.104;2023-09-30T04:57:43;23.87;;;5.00;;
3131;SDS011;62090;52.330;9.104;2023-09-30T05:00:15;24.70;;;5.53;;
3131;SDS011;62090;52.330;9.104;2023-09-30T05:02:48;18.30;;;5.20;;
3131;SDS011;62090;52.330;9.104;2023-09-30T05:05:19;28.23;;;5.17;;
3131;SDS011;62090;52.330;9.104;2023-09-30T05:07:49;20.00;;;4.70;;
3131;SDS011;62090;52.330;9.104;2023-09-30T05:10:21;15.07;;;4.70;;
3131;SDS011;62090;52.330;9.104;2023-09-30T05:12:51;20.13;;;4.90;;
3131;SDS011;62090;52.330;9.104;2023-09-30T05:15:21;23.07;;;4.57;;
3131;SDS011;62090;52.330;9.104;2023-09-30T05:17:52;24.87;;;5.70;;
3131;SDS011;62090;52.330;9.104;2023-09-30T05:20:22;21.97;;;6.13;;
3131;SDS011;62090;52.330;9.104;2023-09-30T05:22:52;23.77;;;4.97;;
3131;SDS011;62090;52.330;9.104;2023-09-30T05:25:24;19.83;;;4.57;;
3131;SDS011;62090;52.330;9.104;2023-09-30T05:27:55;18.90;;;4.77;;
3131;SDS011;62090;52.330;9.104;2023-09-30T05:30:25;23.20;;;4.57;;
3131;SDS011;62090;52.330;9.104;2023-09-30T05:32:55;28.60;;;5.30;;
3131;SDS011;62090;52.330;9.104;2023-09-30T05:35:25;27.80;;;5.43;;
3131;SDS011;62090;52.330;9.104;2023-09-30T05:37:55;16.40;;;4.10;;
3131;SDS011;62090;52.330;9.104;2023-09-30T05:40:28;16.23;;;5.17;;
3131;SDS011;62090;52.330;9.104;2023-09-30T05:42:58;18.33;;;4.50;;
3131;SDS011;62090;52.330;9.104;2023-09-30T05:45:30;17.30;;;4.67;;
3131;SDS011;62090;52.330;9.104;2023-09-30T05:48:02;21.57;;;4.77;;
3131;SDS011;62090;52.330;9.104;2023-09-30T05:50:33;21.70;;;4.87;;
3131;SDS011;62090;52.330;9.104;2023-09-30T05:53:05;17.47;;;4.43;;
3131;SDS011;62090;52.330;9.104;2023-09-30T05:55:40;26.83;;;4.97;;
3131;SDS011;62090;52.330;9.104;2023-09-30T05:58:12;17.83;;;4.53;;
3131;SDS011;62090;52.330;9.104;2023-09-30T06:00:43;25.60;;;6.67;;
3131;SDS011;62090;52.330;9.104;2023-09-30T06:03:13;21.77;;;4.17;;
3131;SDS011;62090;52.330;9.104;2023-09-30T06:05:43;18.23;;;4.60;;
3131;SDS011;62090;52.330;9.104;2023-09-30T06:08:13;15.50;;;4.07;;
3131;SDS011;62090;52.330;9.104;2023-09-30T06:10:47;23.23;;;4.60;;
3131;SDS011;62090;52.330;9.104;2023-09-30T06:13:16;26.97;;;4.73;;
3131;SDS011;62090;52.330;9.104;2023-09-30T06:15:47;27.23;;;5.17;;
3131;SDS011;62090;52.330;9.104;2023-09-30T06:18:17;17.20;;;4.70;;
3131;SDS011;62090;52.330;9.104;2023-09-30T06:20:47;23.57;;;6.30;;
3131;SDS011;62090;52.330;9.104;2023-09-30T06:23:17;24.90;;;5.20;;
3131;SDS011;62090;52.330;9.104;2023-09-30T06:25:50;27.13;;;5.90;;
3131;SDS011;62090;52.330;9.104;2023-09-30T06:28:21;28.40;;;5.33;;
3131;SDS011;62090;52.330;9.104;2023-09-30T06:30:52;20.37;;;4.67;;
3131;SDS011;62090;52.330;9.104;2023-09-30T06:33:23;20.90;;;5.20;;
3131;SDS011;62090;52.330;9.104;2023-09-30T06:35:56;27.53;;;5.30;;
3131;SDS011;62090;52.330;9.104;2023-09-30T06:38:28;23.93;;;5.37;;
3131;SDS011;62090;52.330;9.104;2023-09-30T06:41:01;20.83;;;5.20;;
3131;SDS011;62090;52.330;9.104;2023-09-30T06:43:31;30.47;;;6.20;;
3131;SDS011;62090;52.330;9.104;2023-09-30T06:46:05;21.50;;;5.27;;
3131;SDS011;62090;52.330;9.104;2023-09-30T06:48:36;23.67;;;5.73;;
3131;SDS011;62090;52.330;9.104;2023-09-30T06:51:07;27.40;;;5.30;;
3131;SDS011;62090;52.330;9.104;2023-09-30T06:53:42;21.13;;;5.30;;
3131;SDS011;62090;52.330;9.104;2023-09-30T06:56:15;26.57;;;5.83;;
3131;SDS011;62090;52.330;9.104;2023-09-30T06:58:45;19.00;;;5.17;;
3131;SDS011;62090;52.330;9.104;2023-09-30T07:01:15;25.70;;;4.93;;
3131;SDS011;62090;52.330;9.104;2023-09-30T07:03:46;19.73;;;4.63;;
3131;SDS011;62090;52.330;9.104;2023-09-30T07:06:21;19.93;;;5.00;;
3131;SDS011;62090;52.330;9.104;2023-09-30T07:08:52;21.53;;;4.70;;
3131;SDS011;62090;52.330;9.104;2023-09-30T07:11:30;20.13;;;5.50;;
3131;SDS011;62090;52.330;9.104;2023-09-30T07:14:01;21.63;;;4.80;;
3131;SDS011;62090;52.330;9.104;2023-09-30T07:16:32;25.50;;;3.93;;
3131;SDS011;62090;52.330;9.104;2023-09-30T07:19:02;17.07;;;4.07;;
3131;SDS011;62090;52.330;9.104;2023-09-30T07:21:32;16.63;;;4.40;;
3131;SDS011;62090;52.330;9.104;2023-09-30T07:24:04;30.57;;;4.97;;
3131;SDS011;62090;52.330;9.104;2023-09-30T07:26:37;13.77;;;4.40;;
3131;SDS011;62090;52.330;9.104;2023-09-30T07:29:08;19.67;;;4.90;;
3131;SDS011;62090;52.330;9.104;2023-09-30T07:31:38;29.93;;;4.73;;
3131;SDS011;62090;52.330;9.104;2023-09-30T07:34:08;23.60;;;5.20;;
3131;SDS011;62090;52.330;9.104;2023-09-30T07:36:38;22.87;;;5.10;;
3131;SDS011;62090;52.330;9.104;2023-09-30T07:39:09;13.83;;;4.87;;
3131;SDS011;62090;52.330;9.104;2023-09-30T07:41:42;15.77;;;4.90;;
3131;SDS011;62090;52.330;9.104;2023-09-30T07:44:12;17.10;;;5.10;;
3131;SDS011;62090;52.330;9.104;2023-09-30T07:46:42;12.27;;;3.93;;
3131;SDS011;62090;52.330;9.104;2023-09-30T07:49:13;24.17;;;5.10;;
3131;SDS011;62090;52.330;9.104;2023-09-30T07:51:44;20.63;;;4.80;;
3131;SDS011;62090;52.330;9.104;2023-09-30T07:54:14;30.03;;;4.70;;
3131;SDS011;62090;52.330;9.104;2023-09-30T07:56:59;25.73;;;5.63;;
3131;SDS011;62090;52.330;9.104;2023-09-30T07:59:29;15.87;;;5.20;;
3131;SDS011;62090;52.330;9.104;2023-09-30T08:02:00;28.67;;;6.23;;
3131;SDS011;62090;52.330;9.104;2023-09-30T08:04:31;20.53;;;4.50;;
3131;SDS011;62090;52.330;9.104;2023-09-30T08:07:01;25.40;;;5.50;;
3131;SDS011;62090;52.330;9.104;2023-09-30T08:09:31;18.80;;;5.07;;
3131;SDS011;62090;52.330;9.104;2023-09-30T08:12:04;27.60;;;5.50;;
3131;SDS011;62090;52.330;9.104;2023-09-30T08:14:34;21.13;;;5.50;;
3131;SDS011;62090;52.330;9.104;2023-09-30T08:17:04;19.80;;;4.73;;
3131;SDS011;62090;52.330;9.104;2023-09-30T08:19:34;14.03;;;4.47;;
3131;SDS011;62090;52.330;9.104;2023-09-30T08:22:05;20.57;;;5.20;;
3131;SDS011;62090;52.330;9.104;2023-09-30T08:24:36;21.13;;;5.43;;
3131;SDS011;62090;52.330;9.104;2023-09-30T08:27:08;26.23;;;5.10;;
3131;SDS011;62090;52.330;9.104;2023-09-30T08:29:38;21.73;;;5.20;;
3131;SDS011;62090;52.330;9.104;2023-09-30T08:32:08;30.27;;;5.50;;
3131;SDS011;62090;52.330;9.104;2023-09-30T08:34:39;16.33;;;4.97;;
3131;SDS011;62090;52.330;9.104;2023-09-30T08:37:09;36.40;;;5.00;;
3131;SDS011;62090;52.330;9.104;2023-09-30T08:39:39;13.67;;;4.20;;
3131;SDS011;62090;52.330;9.104;2023-09-30T08:42:12;11.90;;;3.90;;
3131;SDS011;62090;52.330;9.104;2023-09-30T08:44:42;14.57;;;3.93;;
3131;SDS011;62090;52.330;9.104;2023-09-30T08:47:12;15.60;;;4.37;;
3131;SDS011;62090;52.330;9.104;2023-09-30T08:49:44;18.77;;;5.00;;
3131;SDS011;62090;52.330;9.104;2023-09-30T08:52:14;12.93;;;3.80;;
3131;SDS011;62090;52.330;9.104;2023-09-30T08:54:44;16.80;;;4.30;;
3131;SDS011;62090;52.330;9.104;2023-09-30T08:57:17;21.60;;;4.00;;
3131;SDS011;62090;52.330;9.104;2023-09-30T08:59:48;12.93;;;5.13;;
3131;SDS011;62090;52.330;9.104;2023-09-30T09:02:19;16.97;;;4.00;;
3131;SDS011;62090;52.330;9.104;2023-09-30T09:04:49;14.53;;;4.03;;
3131;SDS011;62090;52.330;9.104;2023-09-30T09:07:19;22.73;;;3.70;;
3131;SDS011;62090;52.330;9.104;2023-09-30T09:10:02;14.90;;;3.83;;
3131;SDS011;62090;52.330;9.104;2023-09-30T09:12:37;15.50;;;3.57;;
3131;SDS011;62090;52.330;9.104;2023-09-30T09:15:19;13.90;;;3.77;;
3131;SDS011;62090;52.330;9.104;2023-09-30T09:17:50;21.03;;;4.60;;
3131;SDS011;62090;52.330;9.104;2023-09-30T09:20:22;14.80;;;4.13;;
3131;SDS011;62090;52.330;9.104;2023-09-30T09:22:53;20.33;;;3.60;;
3131;SDS011;62090;52.330;9.104;2023-09-30T09:25:27;18.03;;;4.90;;
3131;SDS011;62090;52.330;9.104;2023-09-30T09:27:59;18.40;;;4.10;;
3131;SDS011;62090;52.330;9.104;2023-09-30T09:30:29;13.77;;;4.33;;
3131;SDS011;62090;52.330;9.104;2023-09-30T09:33:00;16.20;;;4.17;;
3131;SDS011;62090;52.330;9.104;2023-09-30T09:35:32;13.73;;;3.90;;
3131;SDS011;62090;52.330;9.104;2023-09-30T09:38:03;11.60;;;3.93;;
3131;SDS011;62090;52.330;9.104;2023-09-30T09:40:35;10.87;;;3.70;;
3131;SDS011;62090;52.330;9.104;2023-09-30T09:43:10;12.23;;;3.40;;
3131;SDS011;62090;52.330;9.104;2023-09-30T09:45:40;13.33;;;3.77;;
3131;SDS011;62090;52.330;9.104;2023-09-30T09:48:10;17.33;;;3.50;;
3131;SDS011;62090;52.330;9.104;2023-09-30T09:50:41;14.57;;;3.57;;
3131;SDS011;62090;52.330;9.104;2023-09-30T09:53:13;15.13;;;4.37;;
3131;SDS011;62090;52.330;9.104;2023-09-30T09:55:45;11.13;;;4.00;;
3131;SDS011;62090;52.330;9.104;2023-09-30T09:58:19;20.13;;;3.93;;
3131;SDS011;62090;52.330;9.104;2023-09-30T10:00:50;9.47;;;3.50;;
3131;SDS011;62090;52.330;9.104;2023-09-30T10:03:20;16.93;;;3.20;;
3131;SDS011;62090;52.330;9.104;2023-09-30T10:05:50;14.63;;;4.43;;
3131;SDS011;62090;52.330;9.104;2023-09-30T10:08:21;22.23;;;4.00;;
3131;SDS011;62090;52.330;9.104;2023-09-30T10:11:01;14.47;;;3.27;;
3131;SDS011;62090;52.330;9.104;2023-09-30T10:19:19;13.47;;;3.33;;
3131;SDS011;62090;52.330;9.104;2023-09-30T10:24:51;12.60;;;3.47;;
3131;SDS011;62090;52.330;9.104;2023-09-30T10:27:35;10.10;;;3.60;;
3131;SDS011;62090;52.330;9.104;2023-09-30T10:30:10;9.63;;;3.50;;
3131;SDS011;62090;52.330;9.104;2023-09-30T10:35:46;10.53;;;3.17;;
3131;SDS011;62090;52.330;9.104;2023-09-30T10:41:09;14.00;;;3.60;;
3131;SDS011;62090;52.330;9.104;2023-09-30T10:43:40;10.97;;;3.50;;
3131;SDS011;62090;52.330;9.104;2023-09-30T10:49:14;13.60;;;3.40;;
3131;SDS011;62090;52.330;9.104;2023-09-30T10:51:46;15.13;;;3.30;;
3131;SDS011;62090;52.330;9.104;2023-09-30T10:54:21;11.90;;;3.27;;
3131;SDS011;62090;52.330;9.104;2023-09-30T10:56:52;10.07;;;2.60;;
3131;SDS011;62090;52.330;9.104;2023-09-30T10:59:26;12.50;;;4.10;;
3131;SDS011;62090;52.330;9.104;2023-09-30T11:01:59;11.20;;;3.70;;
3131;SDS011;62090;52.330;9.104;2023-09-30T11:04:44;16.97;;;4.03;;
3131;SDS011;62090;52.330;9.104;2023-09-30T11:07:18;8.37;;;3.00;;
3131;SDS011;62090;52.330;9.104;2023-09-30T11:09:53;13.70;;;3.20;;
3131;SDS011;62090;52.330;9.104;2023-09-30T11:12:23;9.33;;;2.13;;
3131;SDS011;62090;52.330;9.104;2023-09-30T11:14:58;8.53;;;2.10;;
3131;SDS011;62090;52.330;9.104;2023-09-30T11:17:32;10.40;;;2.63;;
3131;SDS011;62090;52.330;9.104;2023-09-30T11:20:02;10.17;;;3.40;;
3131;SDS011;62090;52.330;9.104;2023-09-30T11:22:34;6.70;;;2.07;;
3131;SDS011;62090;52.330;9.104;2023-09-30T11:25:06;9.03;;;2.97;;
3131;SDS011;62090;52.330;9.104;2023-09-30T11:27:44;8.40;;;3.10;;
3131;SDS011;62090;52.330;9.104;2023-09-30T11:30:14;10.93;;;3.10;;
3131;SDS011;62090;52.330;9.104;2023-09-30T11:32:46;15.20;;;3.17;;
3131;SDS011;62090;52.330;9.104;2023-09-30T11:35:23;10.17;;;2.60;;
3131;SDS011;62090;52.330;9.104;2023-09-30T11:37:53;11.47;;;3.33;;
3131;SDS011;62090;52.330;9.104;2023-09-30T11:40:23;12.43;;;4.17;;
3131;SDS011;62090;52.330;9.104;2023-09-30T11:45:39;9.47;;;2.30;;
3131;SDS011;62090;52.330;9.104;2023-09-30T11:48:19;9.80;;;2.80;;
3131;SDS011;62090;52.330;9.104;2023-09-30T11:50:49;16.33;;;3.33;;
3131;SDS011;62090;52.330;9.104;2023-09-30T11:53:19;14.40;;;4.93;;
3131;SDS011;62090;52.330;9.104;2023-09-30T11:55:49;12.50;;;4.30;;
3131;SDS011;62090;52.330;9.104;2023-09-30T11:58:22;9.93;;;4.10;;
3131;SDS011;62090;52.330;9.104;2023-09-30T12:00:55;13.83;;;3.80;;
3131;SDS011;62090;52.330;9.104;2023-09-30T12:03:30;10.87;;;3.70;;
3131;SDS011;62090;52.330;9.104;2023-09-30T12:06:03;8.33;;;2.60;;
3131;SDS011;62090;52.330;9.104;2023-09-30T12:08:34;9.90;;;3.10;;
3131;SDS011;62090;52.330;9.104;2023-09-30T12:11:04;9.30;;;2.73;;
3131;SDS011;62090;52.330;9.104;2023-09-30T12:13:34;11.10;;;2.73;;
3131;SDS011;62090;52.330;9.104;2023-09-30T12:16:04;8.50;;;2.60;;
3131;SDS011;62090;52.330;9.104;2023-09-30T12:18:37;7.43;;;2.20;;
3131;SDS011;62090;52.330;9.104;2023-09-30T12:21:08;11.10;;;2.80;;
3131;SDS011;62090;52.330;9.104;2023-09-30T12:23:40;16.07;;;2.90;;
3131;SDS011;62090;52.330;9.104;2023-09-30T12:26:10;8.67;;;2.33;;
3131;SDS011;62090;52.330;9.104;2023-09-30T12:28:45;10.47;;;3.07;;
3131;SDS011;62090;52.330;9.104;2023-09-30T12:31:15;8.47;;;2.67;;
3131;SDS011;62090;52.330;9.104;2023-09-30T12:33:47;7.00;;;2.50;;
3131;SDS011;62090;52.330;9.104;2023-09-30T12:36:18;13.30;;;3.10;;
3131;SDS011;62090;52.330;9.104;2023-09-30T12:38:48;10.87;;;2.57;;
3131;SDS011;62090;52.330;9.104;2023-09-30T12:41:18;6.57;;;2.27;;
3131;SDS011;62090;52.330;9.104;2023-09-30T12:43:48;12.50;;;2.60;;
3131;SDS011;62090;52.330;9.104;2023-09-30T12:46:20;6.77;;;2.77;;
3131;SDS011;62090;52.330;9.104;2023-09-30T12:48:53;10.00;;;2.70;;
3131;SDS011;62090;52.330;9.104;2023-09-30T12:51:24;13.17;;;2.50;;
3131;SDS011;62090;52.330;9.104;2023-09-30T12:53:54;11.30;;;2.60;;
3131;SDS011;62090;52.330;9.104;2023-09-30T12:56:24;9.43;;;2.43;;
3131;SDS011;62090;52.330;9.104;2023-09-30T12:58:56;9.03;;;2.70;;
3131;SDS011;62090;52.330;9.104;2023-09-30T13:01:26;8.87;;;3.07;;
3131;SDS011;62090;52.330;9.104;2023-09-30T13:04:04;7.07;;;3.63;;
3131;SDS011;62090;52.330;9.104;2023-09-30T13:06:35;10.40;;;2.60;;
3131;SDS011;62090;52.330;9.104;2023-09-30T13:09:05;12.60;;;3.80;;
3131;SDS011;62090;52.330;9.104;2023-09-30T13:11:36;9.97;;;2.07;;
3131;SDS011;62090;52.330;9.104;2023-09-30T13:14:06;11.50;;;2.63;;
3131;SDS011;62090;52.330;9.104;2023-09-30T13:16:36;9.93;;;3.07;;
3131;SDS011;62090;52.330;9.104;2023-09-30T13:19:08;20.17;;;2.67;;
3131;SDS011;62090;52.330;9.104;2023-09-30T13:21:38;10.23;;;2.40;;
3131;SDS011;62090;52.330;9.104;2023-09-30T13:24:08;13.30;;;3.53;;
3131;SDS011;62090;52.330;9.104;2023-09-30T13:26:41;10.10;;;2.50;;
3131;SDS011;62090;52.330;9.104;2023-09-30T13:29:11;6.83;;;2.33;;
3131;SDS011;62090;52.330;9.104;2023-09-30T13:31:42;12.23;;;2.40;;
3131;SDS011;62090;52.330;9.104;2023-09-30T13:34:15;13.40;;;3.50;;
3131;SDS011;62090;52.330;9.104;2023-09-30T13:36:45;11.27;;;3.40;;
3131;SDS011;62090;52.330;9.104;2023-09-30T13:39:15;6.40;;;2.60;;
3131;SDS011;62090;52.330;9.104;2023-09-30T13:41:45;8.73;;;2.53;;
3131;SDS011;62090;52.330;9.104;2023-09-30T13:44:15;15.83;;;2.73;;
3131;SDS011;62090;52.330;9.104;2023-09-30T13:46:45;6.33;;;2.30;;
3131;SDS011;62090;52.330;9.104;2023-09-30T13:49:19;10.60;;;2.80;;
3131;SDS011;62090;52.330;9.104;2023-09-30T13:51:49;8.60;;;2.97;;
3131;SDS011;62090;52.330;9.104;2023-09-30T13:54:19;16.07;;;3.07;;
3131;SDS011;62090;52.330;9.104;2023-09-30T13:56:49;12.00;;;3.40;;
3131;SDS011;62090;52.330;9.104;2023-09-30T13:59:19;14.40;;;2.73;;
3131;SDS011;62090;52.330;9.104;2023-09-30T14:01:50;11.30;;;3.10;;
3131;SDS011;62090;52.330;9.104;2023-09-30T14:04:22;8.40;;;2.40;;
3131;SDS011;62090;52.330;9.104;2023-09-30T14:06:52;9.07;;;2.90;;
3131;SDS011;62090;52.330;9.104;2023-09-30T14:09:23;7.27;;;2.57;;
3131;SDS011;62090;52.330;9.104;2023-09-30T14:12:01;7.30;;;2.83;;
3131;SDS011;62090;52.330;9.104;2023-09-30T14:14:31;8.70;;;2.83;;
3131;SDS011;62090;52.330;9.104;2023-09-30T14:17:02;10.80;;;3.23;;
3131;SDS011;62090;52.330;9.104;2023-09-30T14:19:39;7.33;;;2.67;;
3131;SDS011;62090;52.330;9.104;2023-09-30T14:22:09;8.13;;;2.97;;
3131;SDS011;62090;52.330;9.104;2023-09-30T14:24:39;15.87;;;3.13;;
3131;SDS011;62090;52.330;9.104;2023-09-30T14:27:09;11.77;;;2.97;;
3131;SDS011;62090;52.330;9.104;2023-09-30T14:29:40;11.37;;;3.03;;
3131;SDS011;62090;52.330;9.104;2023-09-30T14:32:12;8.40;;;2.53;;
3131;SDS011;62090;52.330;9.104;2023-09-30T14:34:44;6.43;;;2.33;;
3131;SDS011;62090;52.330;9.104;2023-09-30T14:37:14;9.10;;;2.47;;
3131;SDS011;62090;52.330;9.104;2023-09-30T14:39:44;17.17;;;3.00;;
3131;SDS011;62090;52.330;9.104;2023-09-30T14:42:15;5.93;;;2.40;;
3131;SDS011;62090;52.330;9.104;2023-09-30T14:44:44;13.50;;;2.67;;
3131;SDS011;62090;52.330;9.104;2023-09-30T14:47:14;15.87;;;3.50;;
3131;SDS011;62090;52.330;9.104;2023-09-30T14:49:47;7.67;;;2.47;;
3131;SDS011;62090;52.330;9.104;2023-09-30T14:52:17;16.93;;;2.63;;
3131;SDS011;62090;52.330;9.104;2023-09-30T14:54:47;16.13;;;2.90;;
3131;SDS011;62090;52.330;9.104;2023-09-30T14:57:17;15.00;;;2.90;;
3131;SDS011;62090;52.330;9.104;2023-09-30T14:59:48;14.87;;;2.80;;
3131;SDS011;62090;52.330;9.104;2023-09-30T15:02:17;11.63;;;2.73;;
3131;SDS011;62090;52.330;9.104;2023-09-30T15:04:50;8.03;;;3.13;;
3131;SDS011;62090;52.330;9.104;2023-09-30T15:07:20;15.67;;;3.93;;
3131;SDS011;62090;52.330;9.104;2023-09-30T15:09:50;6.53;;;2.33;;
3131;SDS011;62090;52.330;9.104;2023-09-30T15:12:21;8.43;;;2.93;;
3131;SDS011;62090;52.330;9.104;2023-09-30T15:14:52;7.80;;;2.77;;
3131;SDS011;62090;52.330;9.104;2023-09-30T15:17:22;10.33;;;2.63;;
3131;SDS011;62090;52.330;9.104;2023-09-30T15:19:54;10.77;;;2.73;;
3131;SDS011;62090;52.330;9.104;2023-09-30T15:22:24;12.10;;;3.33;;
3131;SDS011;62090;52.330;9.104;2023-09-30T15:24:54;9.80;;;2.60;;
3131;SDS011;62090;52.330;9.104;2023-09-30T15:27:24;7.90;;;2.90;;
3131;SDS011;62090;52.330;9.104;2023-09-30T15:29:54;10.30;;;2.73;;
3131;SDS011;62090;52.330;9.104;2023-09-30T15:32:25;9.00;;;3.20;;
3131;SDS011;62090;52.330;9.104;2023-09-30T15:34:57;13.73;;;3.07;;